This is the latest recevied weather packets stored in our database for station/object EA3KZ-1. If no packets are shown the sender has not sent any weather packets the latest 1 day(s).
| Time | Temp. | Humidity | Pressure | Rain* | Wind** | Luminosity | Snow |
|---|---|---|---|---|---|---|---|
| 1777992064 | 19.44° C | 63% | 1005.1 hPa | 0 mm | 1.34 m/s, 154° | - | - |
| 1777991462 | 20° C | 61% | 1005.1 hPa | 0 mm | 1.34 m/s, 59° | - | - |
| 1777990859 | 20.56° C | 57% | 1005.2 hPa | 0 mm | 1.34 m/s, 74° | - | - |
| 1777990257 | 20° C | 58% | 1005.3 hPa | 0 mm | 1.34 m/s, 115° | - | - |
| 1777989654 | 20° C | 58% | 1005.5 hPa | 0 mm | 1.34 m/s, 134° | - | - |
| 1777989051 | 19.44° C | 59% | 1005.7 hPa | 0 mm | 0.89 m/s, 98° | - | - |
| 1777988449 | 18.89° C | 60% | 1005.8 hPa | 0 mm | 0.89 m/s, 34° | - | - |
| 1777987846 | 20° C | 57% | 1005.7 hPa | 0 mm | 1.34 m/s, 137° | - | - |
| 1777987244 | 20.56° C | 54% | 1005.7 hPa | 0 mm | 0.45 m/s, 58° | - | - |
| 1777986641 | 20° C | 55% | 1006 hPa | 0 mm | 1.79 m/s, 105° | - | - |
| 1777986038 | 20.56° C | 55% | 1006 hPa | 0 mm | 0.89 m/s, 71° | - | - |
| 1777985436 | 19.44° C | 60% | 1006.1 hPa | 0 mm | 0.89 m/s, 354° | - | - |
| 1777984833 | 19.44° C | 62% | 1006 hPa | 0 mm | 1.34 m/s, 22° | - | - |
| 1777984230 | 19.44° C | 61% | 1006.3 hPa | 0 mm | 1.34 m/s, 114° | - | - |
| 1777983627 | 18.33° C | 65% | 1006.3 hPa | 0 mm | 1.79 m/s, 27° | - | - |
| 1777983024 | 19.44° C | 62% | 1006.4 hPa | 0 mm | 0.45 m/s, 68° | - | - |
| 1777982422 | 18.89° C | 64% | 1006.3 hPa | 0 mm | 0.89 m/s, 107° | - | - |
| 1777981819 | 18.89° C | 66% | 1006.5 hPa | 0 mm | 0.89 m/s, 136° | - | - |
| 1777981216 | 19.44° C | 60% | 1006.6 hPa | 0 mm | 0.89 m/s, 76° | - | - |
| 1777980674 | 17.78° C | 64% | 1006.7 hPa | 0 mm | 1.34 m/s, 25° | - | - |
| 1777980072 | 17.22° C | 68% | 1006.8 hPa | 0 mm | 0.45 m/s, 17° | - | - |
| 1777979469 | 17.78° C | 69% | 1007 hPa | 0 mm | 0.89 m/s, 9° | - | - |
| 1777978866 | 17.78° C | 69% | 1007.1 hPa | 0 mm | 0 m/s | - | - |
| 1777978264 | 17.22° C | 72% | 1007 hPa | 0 mm | 0.45 m/s, 113° | - | - |
| 1777977661 | 16.67° C | 75% | 1007.2 hPa | 0 mm | 0.89 m/s, 94° | - | - |
* Rain latest hour (hover to see other rain measurements)
** Current wind speed in m/s (hover to see current wind gust speed)